sensor_id;sensor_type;location;lat;lon;timestamp;P1;durP1;ratioP1;P2;durP2;ratioP2
12445;SDS011;6287;50.984;7.022;2022-10-30T00:00:19;6.50;;;3.33;;
12445;SDS011;6287;50.984;7.022;2022-10-30T00:02:49;4.40;;;3.03;;
12445;SDS011;6287;50.984;7.022;2022-10-30T00:05:17;5.03;;;2.83;;
12445;SDS011;6287;50.984;7.022;2022-10-30T00:07:45;4.63;;;3.27;;
12445;SDS011;6287;50.984;7.022;2022-10-30T00:10:13;5.17;;;3.23;;
12445;SDS011;6287;50.984;7.022;2022-10-30T00:12:40;6.17;;;3.37;;
12445;SDS011;6287;50.984;7.022;2022-10-30T00:15:07;4.37;;;3.37;;
12445;SDS011;6287;50.984;7.022;2022-10-30T00:17:33;4.03;;;2.80;;
12445;SDS011;6287;50.984;7.022;2022-10-30T00:19:58;5.63;;;3.40;;
12445;SDS011;6287;50.984;7.022;2022-10-30T00:22:26;5.37;;;3.60;;
12445;SDS011;6287;50.984;7.022;2022-10-30T00:24:54;4.30;;;3.00;;
12445;SDS011;6287;50.984;7.022;2022-10-30T00:27:20;5.60;;;3.10;;
12445;SDS011;6287;50.984;7.022;2022-10-30T00:29:45;6.77;;;2.90;;
12445;SDS011;6287;50.984;7.022;2022-10-30T00:32:11;5.07;;;2.90;;
12445;SDS011;6287;50.984;7.022;2022-10-30T00:34:42;8.43;;;3.40;;
12445;SDS011;6287;50.984;7.022;2022-10-30T00:37:10;4.07;;;3.03;;
12445;SDS011;6287;50.984;7.022;2022-10-30T00:39:35;15.13;;;3.73;;
12445;SDS011;6287;50.984;7.022;2022-10-30T00:42:01;6.13;;;3.57;;
12445;SDS011;6287;50.984;7.022;2022-10-30T00:44:30;4.63;;;3.23;;
12445;SDS011;6287;50.984;7.022;2022-10-30T00:47:04;5.03;;;3.10;;
12445;SDS011;6287;50.984;7.022;2022-10-30T00:49:42;5.17;;;2.80;;
12445;SDS011;6287;50.984;7.022;2022-10-30T00:52:14;6.53;;;3.30;;
12445;SDS011;6287;50.984;7.022;2022-10-30T00:54:45;6.53;;;3.67;;
12445;SDS011;6287;50.984;7.022;2022-10-30T00:57:13;7.17;;;3.50;;
12445;SDS011;6287;50.984;7.022;2022-10-30T00:59:39;7.93;;;3.50;;
12445;SDS011;6287;50.984;7.022;2022-10-30T01:02:08;4.07;;;3.07;;
12445;SDS011;6287;50.984;7.022;2022-10-30T01:04:34;4.30;;;2.83;;
12445;SDS011;6287;50.984;7.022;2022-10-30T01:07:08;5.07;;;3.23;;
12445;SDS011;6287;50.984;7.022;2022-10-30T01:09:36;7.57;;;3.27;;
12445;SDS011;6287;50.984;7.022;2022-10-30T01:12:06;4.63;;;3.00;;
12445;SDS011;6287;50.984;7.022;2022-10-30T01:14:35;5.37;;;3.20;;
12445;SDS011;6287;50.984;7.022;2022-10-30T01:22:57;5.83;;;3.57;;
12445;SDS011;6287;50.984;7.022;2022-10-30T01:28:03;6.03;;;2.97;;
12445;SDS011;6287;50.984;7.022;2022-10-30T01:31:10;4.70;;;3.23;;
12445;SDS011;6287;50.984;7.022;2022-10-30T01:38:53;3.70;;;2.80;;
12445;SDS011;6287;50.984;7.022;2022-10-30T01:41:40;6.87;;;3.47;;
12445;SDS011;6287;50.984;7.022;2022-10-30T01:44:17;6.13;;;2.93;;
12445;SDS011;6287;50.984;7.022;2022-10-30T01:53:20;5.03;;;3.20;;
12445;SDS011;6287;50.984;7.022;2022-10-30T01:58:22;5.83;;;3.40;;
12445;SDS011;6287;50.984;7.022;2022-10-30T02:00:56;3.50;;;2.50;;
12445;SDS011;6287;50.984;7.022;2022-10-30T02:03:25;8.83;;;3.00;;
12445;SDS011;6287;50.984;7.022;2022-10-30T02:05:52;6.17;;;3.20;;
12445;SDS011;6287;50.984;7.022;2022-10-30T02:08:20;3.70;;;3.07;;
12445;SDS011;6287;50.984;7.022;2022-10-30T02:10:47;4.53;;;2.83;;
12445;SDS011;6287;50.984;7.022;2022-10-30T02:13:19;4.53;;;2.90;;
12445;SDS011;6287;50.984;7.022;2022-10-30T02:15:45;6.10;;;3.03;;
12445;SDS011;6287;50.984;7.022;2022-10-30T02:18:15;4.87;;;3.23;;
12445;SDS011;6287;50.984;7.022;2022-10-30T02:20:43;5.70;;;2.87;;
12445;SDS011;6287;50.984;7.022;2022-10-30T02:23:13;3.67;;;2.80;;
12445;SDS011;6287;50.984;7.022;2022-10-30T02:25:42;5.73;;;3.60;;
12445;SDS011;6287;50.984;7.022;2022-10-30T02:28:09;5.10;;;3.47;;
12445;SDS011;6287;50.984;7.022;2022-10-30T02:30:34;5.73;;;3.30;;
12445;SDS011;6287;50.984;7.022;2022-10-30T02:33:00;5.23;;;3.10;;
12445;SDS011;6287;50.984;7.022;2022-10-30T02:35:25;6.30;;;3.30;;
12445;SDS011;6287;50.984;7.022;2022-10-30T02:37:51;8.90;;;3.40;;
12445;SDS011;6287;50.984;7.022;2022-10-30T02:40:19;4.47;;;2.83;;
12445;SDS011;6287;50.984;7.022;2022-10-30T02:42:49;5.20;;;3.80;;
12445;SDS011;6287;50.984;7.022;2022-10-30T02:45:15;7.20;;;3.57;;
12445;SDS011;6287;50.984;7.022;2022-10-30T02:47:41;8.17;;;3.33;;
12445;SDS011;6287;50.984;7.022;2022-10-30T02:50:07;5.60;;;3.17;;
12445;SDS011;6287;50.984;7.022;2022-10-30T02:52:35;4.90;;;3.27;;
12445;SDS011;6287;50.984;7.022;2022-10-30T02:55:03;4.10;;;3.40;;
12445;SDS011;6287;50.984;7.022;2022-10-30T02:57:36;6.07;;;3.33;;
12445;SDS011;6287;50.984;7.022;2022-10-30T03:00:06;6.13;;;3.00;;
12445;SDS011;6287;50.984;7.022;2022-10-30T03:02:32;5.83;;;2.93;;
12445;SDS011;6287;50.984;7.022;2022-10-30T03:05:00;8.00;;;3.40;;
12445;SDS011;6287;50.984;7.022;2022-10-30T03:07:28;5.47;;;3.33;;
12445;SDS011;6287;50.984;7.022;2022-10-30T03:09:56;8.10;;;3.33;;
12445;SDS011;6287;50.984;7.022;2022-10-30T03:12:22;3.87;;;2.90;;
12445;SDS011;6287;50.984;7.022;2022-10-30T03:14:47;6.07;;;3.20;;
12445;SDS011;6287;50.984;7.022;2022-10-30T03:17:13;5.67;;;3.50;;
12445;SDS011;6287;50.984;7.022;2022-10-30T03:19:40;4.80;;;3.33;;
12445;SDS011;6287;50.984;7.022;2022-10-30T03:22:06;9.57;;;3.70;;
12445;SDS011;6287;50.984;7.022;2022-10-30T03:24:34;6.93;;;3.20;;
12445;SDS011;6287;50.984;7.022;2022-10-30T03:26:59;5.20;;;2.93;;
12445;SDS011;6287;50.984;7.022;2022-10-30T03:29:25;6.60;;;3.00;;
12445;SDS011;6287;50.984;7.022;2022-10-30T03:31:50;10.17;;;3.67;;
12445;SDS011;6287;50.984;7.022;2022-10-30T03:34:16;5.87;;;3.93;;
12445;SDS011;6287;50.984;7.022;2022-10-30T03:36:44;3.90;;;3.10;;
12445;SDS011;6287;50.984;7.022;2022-10-30T03:39:09;4.37;;;3.67;;
12445;SDS011;6287;50.984;7.022;2022-10-30T03:41:37;4.53;;;2.77;;
12445;SDS011;6287;50.984;7.022;2022-10-30T03:44:03;7.93;;;3.87;;
12445;SDS011;6287;50.984;7.022;2022-10-30T03:46:31;5.07;;;3.27;;
12445;SDS011;6287;50.984;7.022;2022-10-30T03:48:59;5.90;;;3.30;;
12445;SDS011;6287;50.984;7.022;2022-10-30T03:51:25;8.73;;;3.40;;
12445;SDS011;6287;50.984;7.022;2022-10-30T03:53:51;3.97;;;3.20;;
12445;SDS011;6287;50.984;7.022;2022-10-30T03:56:16;6.10;;;2.93;;
12445;SDS011;6287;50.984;7.022;2022-10-30T03:58:46;4.47;;;3.00;;
12445;SDS011;6287;50.984;7.022;2022-10-30T04:01:11;6.90;;;3.43;;
12445;SDS011;6287;50.984;7.022;2022-10-30T04:03:37;4.03;;;2.97;;
12445;SDS011;6287;50.984;7.022;2022-10-30T04:06:02;5.63;;;3.33;;
12445;SDS011;6287;50.984;7.022;2022-10-30T04:08:28;5.57;;;3.10;;
12445;SDS011;6287;50.984;7.022;2022-10-30T04:10:56;7.67;;;3.80;;
12445;SDS011;6287;50.984;7.022;2022-10-30T04:13:21;5.57;;;3.37;;
12445;SDS011;6287;50.984;7.022;2022-10-30T04:15:49;5.33;;;2.97;;
12445;SDS011;6287;50.984;7.022;2022-10-30T04:18:17;6.20;;;3.53;;
12445;SDS011;6287;50.984;7.022;2022-10-30T04:20:43;7.00;;;3.40;;
12445;SDS011;6287;50.984;7.022;2022-10-30T04:23:12;5.77;;;3.27;;
12445;SDS011;6287;50.984;7.022;2022-10-30T04:25:40;5.17;;;3.17;;
12445;SDS011;6287;50.984;7.022;2022-10-30T04:28:06;5.13;;;3.20;;
12445;SDS011;6287;50.984;7.022;2022-10-30T04:30:31;5.60;;;3.83;;
12445;SDS011;6287;50.984;7.022;2022-10-30T04:32:59;4.47;;;3.37;;
12445;SDS011;6287;50.984;7.022;2022-10-30T04:35:29;7.27;;;3.70;;
12445;SDS011;6287;50.984;7.022;2022-10-30T04:37:58;5.73;;;3.40;;
12445;SDS011;6287;50.984;7.022;2022-10-30T04:40:28;7.57;;;3.17;;
12445;SDS011;6287;50.984;7.022;2022-10-30T04:42:59;6.10;;;3.83;;
12445;SDS011;6287;50.984;7.022;2022-10-30T04:45:27;5.23;;;3.20;;
12445;SDS011;6287;50.984;7.022;2022-10-30T04:47:58;6.87;;;3.20;;
12445;SDS011;6287;50.984;7.022;2022-10-30T04:50:29;6.93;;;3.90;;
12445;SDS011;6287;50.984;7.022;2022-10-30T04:53:05;4.67;;;3.13;;
12445;SDS011;6287;50.984;7.022;2022-10-30T04:55:36;4.53;;;3.27;;
12445;SDS011;6287;50.984;7.022;2022-10-30T04:58:02;5.90;;;3.30;;
12445;SDS011;6287;50.984;7.022;2022-10-30T05:00:28;5.83;;;3.23;;
12445;SDS011;6287;50.984;7.022;2022-10-30T05:02:57;8.10;;;4.07;;
12445;SDS011;6287;50.984;7.022;2022-10-30T05:05:24;4.80;;;3.50;;
12445;SDS011;6287;50.984;7.022;2022-10-30T05:07:50;8.77;;;3.60;;
12445;SDS011;6287;50.984;7.022;2022-10-30T05:10:18;4.77;;;3.37;;
12445;SDS011;6287;50.984;7.022;2022-10-30T05:12:44;3.73;;;3.03;;
12445;SDS011;6287;50.984;7.022;2022-10-30T05:15:11;4.07;;;3.13;;
12445;SDS011;6287;50.984;7.022;2022-10-30T05:17:37;10.33;;;3.70;;
12445;SDS011;6287;50.984;7.022;2022-10-30T05:20:04;5.73;;;3.93;;
12445;SDS011;6287;50.984;7.022;2022-10-30T05:22:30;5.73;;;4.10;;
12445;SDS011;6287;50.984;7.022;2022-10-30T05:25:01;6.03;;;4.07;;
12445;SDS011;6287;50.984;7.022;2022-10-30T05:27:26;7.03;;;4.17;;
12445;SDS011;6287;50.984;7.022;2022-10-30T05:29:54;8.67;;;4.50;;
12445;SDS011;6287;50.984;7.022;2022-10-30T05:32:22;5.60;;;3.87;;
12445;SDS011;6287;50.984;7.022;2022-10-30T05:34:50;6.43;;;3.73;;
12445;SDS011;6287;50.984;7.022;2022-10-30T05:37:15;8.00;;;3.47;;
12445;SDS011;6287;50.984;7.022;2022-10-30T05:39:41;5.73;;;3.83;;
12445;SDS011;6287;50.984;7.022;2022-10-30T05:42:07;6.47;;;3.53;;
12445;SDS011;6287;50.984;7.022;2022-10-30T05:44:34;5.17;;;3.73;;
12445;SDS011;6287;50.984;7.022;2022-10-30T05:47:00;6.97;;;3.73;;
12445;SDS011;6287;50.984;7.022;2022-10-30T05:49:25;5.80;;;3.50;;
12445;SDS011;6287;50.984;7.022;2022-10-30T05:51:51;5.83;;;3.37;;
12445;SDS011;6287;50.984;7.022;2022-10-30T05:54:16;9.03;;;3.73;;
12445;SDS011;6287;50.984;7.022;2022-10-30T05:56:45;4.50;;;3.37;;
12445;SDS011;6287;50.984;7.022;2022-10-30T05:59:13;4.47;;;3.47;;
12445;SDS011;6287;50.984;7.022;2022-10-30T06:01:38;7.17;;;3.53;;
12445;SDS011;6287;50.984;7.022;2022-10-30T06:04:04;7.90;;;3.33;;
12445;SDS011;6287;50.984;7.022;2022-10-30T06:06:29;7.17;;;3.20;;
12445;SDS011;6287;50.984;7.022;2022-10-30T06:08:56;5.83;;;4.00;;
12445;SDS011;6287;50.984;7.022;2022-10-30T06:11:24;5.23;;;3.57;;
12445;SDS011;6287;50.984;7.022;2022-10-30T06:13:50;5.33;;;3.40;;
12445;SDS011;6287;50.984;7.022;2022-10-30T06:16:15;5.97;;;3.50;;
12445;SDS011;6287;50.984;7.022;2022-10-30T06:18:41;6.90;;;3.40;;
12445;SDS011;6287;50.984;7.022;2022-10-30T06:21:06;5.17;;;3.60;;
12445;SDS011;6287;50.984;7.022;2022-10-30T06:23:32;4.97;;;3.73;;
12445;SDS011;6287;50.984;7.022;2022-10-30T06:25:57;5.53;;;3.43;;
12445;SDS011;6287;50.984;7.022;2022-10-30T06:28:25;5.33;;;3.50;;
12445;SDS011;6287;50.984;7.022;2022-10-30T06:30:53;4.80;;;3.80;;
12445;SDS011;6287;50.984;7.022;2022-10-30T06:33:21;5.20;;;3.50;;
12445;SDS011;6287;50.984;7.022;2022-10-30T06:35:47;4.63;;;3.77;;
12445;SDS011;6287;50.984;7.022;2022-10-30T06:38:16;4.87;;;3.60;;
12445;SDS011;6287;50.984;7.022;2022-10-30T06:40:41;6.63;;;3.33;;
12445;SDS011;6287;50.984;7.022;2022-10-30T06:43:09;5.73;;;3.60;;
12445;SDS011;6287;50.984;7.022;2022-10-30T06:45:35;8.60;;;3.67;;
12445;SDS011;6287;50.984;7.022;2022-10-30T06:48:03;5.60;;;3.50;;
12445;SDS011;6287;50.984;7.022;2022-10-30T06:50:29;9.90;;;3.90;;
12445;SDS011;6287;50.984;7.022;2022-10-30T06:52:57;9.40;;;3.37;;
12445;SDS011;6287;50.984;7.022;2022-10-30T06:55:22;4.90;;;3.40;;
12445;SDS011;6287;50.984;7.022;2022-10-30T06:57:53;4.47;;;3.57;;
12445;SDS011;6287;50.984;7.022;2022-10-30T07:00:20;6.47;;;3.60;;
12445;SDS011;6287;50.984;7.022;2022-10-30T07:02:53;7.40;;;3.90;;
12445;SDS011;6287;50.984;7.022;2022-10-30T07:05:23;7.70;;;3.73;;
12445;SDS011;6287;50.984;7.022;2022-10-30T07:07:49;5.80;;;3.53;;
12445;SDS011;6287;50.984;7.022;2022-10-30T07:10:17;4.97;;;3.50;;
12445;SDS011;6287;50.984;7.022;2022-10-30T07:12:49;5.80;;;3.40;;
12445;SDS011;6287;50.984;7.022;2022-10-30T07:15:15;6.87;;;4.93;;
12445;SDS011;6287;50.984;7.022;2022-10-30T07:17:41;8.30;;;4.40;;
12445;SDS011;6287;50.984;7.022;2022-10-30T07:20:09;7.10;;;4.20;;
12445;SDS011;6287;50.984;7.022;2022-10-30T07:22:39;5.73;;;3.30;;
12445;SDS011;6287;50.984;7.022;2022-10-30T07:25:07;4.93;;;3.53;;
12445;SDS011;6287;50.984;7.022;2022-10-30T07:27:44;6.87;;;4.00;;
12445;SDS011;6287;50.984;7.022;2022-10-30T07:30:17;5.10;;;4.10;;
12445;SDS011;6287;50.984;7.022;2022-10-30T07:33:00;6.67;;;3.97;;
12445;SDS011;6287;50.984;7.022;2022-10-30T07:35:32;7.87;;;4.37;;
12445;SDS011;6287;50.984;7.022;2022-10-30T07:38:02;5.77;;;3.80;;
12445;SDS011;6287;50.984;7.022;2022-10-30T07:40:29;6.80;;;3.97;;
12445;SDS011;6287;50.984;7.022;2022-10-30T07:42:55;4.83;;;3.57;;
12445;SDS011;6287;50.984;7.022;2022-10-30T07:45:24;7.27;;;4.30;;
12445;SDS011;6287;50.984;7.022;2022-10-30T07:47:50;9.00;;;4.03;;
12445;SDS011;6287;50.984;7.022;2022-10-30T07:50:16;7.73;;;3.70;;
12445;SDS011;6287;50.984;7.022;2022-10-30T07:52:45;5.40;;;3.50;;
12445;SDS011;6287;50.984;7.022;2022-10-30T07:55:12;6.60;;;3.90;;
12445;SDS011;6287;50.984;7.022;2022-10-30T07:57:38;6.73;;;4.13;;
12445;SDS011;6287;50.984;7.022;2022-10-30T08:00:07;6.43;;;4.10;;
12445;SDS011;6287;50.984;7.022;2022-10-30T08:02:36;7.97;;;4.07;;
12445;SDS011;6287;50.984;7.022;2022-10-30T08:05:03;5.83;;;3.73;;
12445;SDS011;6287;50.984;7.022;2022-10-30T08:07:36;6.77;;;4.00;;
12445;SDS011;6287;50.984;7.022;2022-10-30T08:10:03;6.17;;;4.10;;
12445;SDS011;6287;50.984;7.022;2022-10-30T08:12:30;6.57;;;4.10;;
12445;SDS011;6287;50.984;7.022;2022-10-30T08:14:57;7.37;;;3.90;;
12445;SDS011;6287;50.984;7.022;2022-10-30T08:17:22;6.10;;;3.00;;
12445;SDS011;6287;50.984;7.022;2022-10-30T08:19:50;7.53;;;4.17;;
12445;SDS011;6287;50.984;7.022;2022-10-30T08:22:19;6.43;;;3.53;;
12445;SDS011;6287;50.984;7.022;2022-10-30T08:24:44;6.10;;;3.27;;
12445;SDS011;6287;50.984;7.022;2022-10-30T08:27:10;9.93;;;3.50;;
12445;SDS011;6287;50.984;7.022;2022-10-30T08:29:35;6.37;;;3.27;;
12445;SDS011;6287;50.984;7.022;2022-10-30T08:32:03;8.37;;;3.03;;
12445;SDS011;6287;50.984;7.022;2022-10-30T08:34:29;5.07;;;3.50;;
12445;SDS011;6287;50.984;7.022;2022-10-30T08:36:56;6.77;;;3.23;;
12445;SDS011;6287;50.984;7.022;2022-10-30T08:39:22;5.80;;;3.10;;
12445;SDS011;6287;50.984;7.022;2022-10-30T08:41:47;5.43;;;3.13;;
12445;SDS011;6287;50.984;7.022;2022-10-30T08:44:15;8.93;;;3.13;;
12445;SDS011;6287;50.984;7.022;2022-10-30T08:46:43;4.70;;;3.43;;
12445;SDS011;6287;50.984;7.022;2022-10-30T08:49:13;5.70;;;3.13;;
12445;SDS011;6287;50.984;7.022;2022-10-30T08:51:39;7.60;;;3.53;;
12445;SDS011;6287;50.984;7.022;2022-10-30T08:54:04;6.10;;;3.23;;
12445;SDS011;6287;50.984;7.022;2022-10-30T08:56:32;7.50;;;3.50;;
12445;SDS011;6287;50.984;7.022;2022-10-30T08:59:02;3.42;;;3.13;;
12445;SDS011;6287;50.984;7.022;2022-10-30T09:01:28;6.78;;;3.03;;
12445;SDS011;6287;50.984;7.022;2022-10-30T09:03:56;4.68;;;3.05;;
12445;SDS011;6287;50.984;7.022;2022-10-30T09:06:21;5.47;;;3.33;;
12445;SDS011;6287;50.984;7.022;2022-10-30T09:08:47;7.32;;;3.00;;
12445;SDS011;6287;50.984;7.022;2022-10-30T09:11:17;6.20;;;3.50;;
12445;SDS011;6287;50.984;7.022;2022-10-30T09:13:45;5.93;;;3.30;;
12445;SDS011;6287;50.984;7.022;2022-10-30T09:16:13;6.65;;;3.08;;
12445;SDS011;6287;50.984;7.022;2022-10-30T09:18:38;5.17;;;2.70;;
12445;SDS011;6287;50.984;7.022;2022-10-30T09:21:05;6.53;;;3.63;;
12445;SDS011;6287;50.984;7.022;2022-10-30T09:23:35;7.60;;;3.05;;
12445;SDS011;6287;50.984;7.022;2022-10-30T09:26:00;6.43;;;2.75;;
12445;SDS011;6287;50.984;7.022;2022-10-30T09:28:26;3.15;;;2.63;;
12445;SDS011;6287;50.984;7.022;2022-10-30T09:30:52;4.55;;;2.63;;
12445;SDS011;6287;50.984;7.022;2022-10-30T09:33:22;5.57;;;3.05;;
12445;SDS011;6287;50.984;7.022;2022-10-30T09:35:48;4.20;;;2.75;;
12445;SDS011;6287;50.984;7.022;2022-10-30T09:38:16;4.60;;;3.05;;
12445;SDS011;6287;50.984;7.022;2022-10-30T09:43:38;6.50;;;2.80;;
12445;SDS011;6287;50.984;7.022;2022-10-30T09:49:04;3.80;;;2.40;;
12445;SDS011;6287;50.984;7.022;2022-10-30T10:00:22;5.00;;;3.05;;
12445;SDS011;6287;50.984;7.022;2022-10-30T10:05:50;4.20;;;2.63;;
12445;SDS011;6287;50.984;7.022;2022-10-30T10:08:40;6.70;;;2.78;;
12445;SDS011;6287;50.984;7.022;2022-10-30T10:11:22;3.88;;;2.50;;
12445;SDS011;6287;50.984;7.022;2022-10-30T10:16:35;5.93;;;2.85;;
12445;SDS011;6287;50.984;7.022;2022-10-30T10:19:13;4.20;;;2.58;;
12445;SDS011;6287;50.984;7.022;2022-10-30T10:21:52;5.13;;;2.50;;
12445;SDS011;6287;50.984;7.022;2022-10-30T10:24:25;6.15;;;2.47;;
12445;SDS011;6287;50.984;7.022;2022-10-30T10:40:51;4.47;;;2.30;;
12445;SDS011;6287;50.984;7.022;2022-10-30T10:49:06;2.63;;;2.28;;
12445;SDS011;6287;50.984;7.022;2022-10-30T10:51:56;4.68;;;2.50;;
12445;SDS011;6287;50.984;7.022;2022-10-30T10:57:07;6.72;;;2.60;;
12445;SDS011;6287;50.984;7.022;2022-10-30T11:00:03;4.15;;;2.42;;
12445;SDS011;6287;50.984;7.022;2022-10-30T11:02:42;4.30;;;2.40;;
12445;SDS011;6287;50.984;7.022;2022-10-30T11:08:05;4.43;;;2.47;;
12445;SDS011;6287;50.984;7.022;2022-10-30T11:10:40;3.38;;;2.20;;
12445;SDS011;6287;50.984;7.022;2022-10-30T11:13:12;4.47;;;2.45;;
12445;SDS011;6287;50.984;7.022;2022-10-30T11:15:46;6.15;;;2.15;;
12445;SDS011;6287;50.984;7.022;2022-10-30T11:18:32;4.93;;;2.90;;
12445;SDS011;6287;50.984;7.022;2022-10-30T11:20:59;3.80;;;2.58;;
12445;SDS011;6287;50.984;7.022;2022-10-30T11:31:43;2.95;;;2.30;;
12445;SDS011;6287;50.984;7.022;2022-10-30T11:36:49;5.63;;;2.60;;
12445;SDS011;6287;50.984;7.022;2022-10-30T11:41:44;5.03;;;2.35;;
12445;SDS011;6287;50.984;7.022;2022-10-30T11:44:31;3.63;;;2.10;;
12445;SDS011;6287;50.984;7.022;2022-10-30T11:47:02;6.70;;;2.38;;
12445;SDS011;6287;50.984;7.022;2022-10-30T11:52:08;3.42;;;2.10;;
12445;SDS011;6287;50.984;7.022;2022-10-30T11:54:38;3.30;;;2.15;;
12445;SDS011;6287;50.984;7.022;2022-10-30T11:59:55;4.70;;;2.10;;
12445;SDS011;6287;50.984;7.022;2022-10-30T12:02:23;5.43;;;2.30;;
12445;SDS011;6287;50.984;7.022;2022-10-30T12:04:54;3.90;;;2.03;;
12445;SDS011;6287;50.984;7.022;2022-10-30T12:07:29;5.80;;;2.35;;
12445;SDS011;6287;50.984;7.022;2022-10-30T12:09:58;3.38;;;1.95;;
12445;SDS011;6287;50.984;7.022;2022-10-30T12:14:51;5.05;;;2.08;;
12445;SDS011;6287;50.984;7.022;2022-10-30T12:17:19;3.33;;;2.28;;
12445;SDS011;6287;50.984;7.022;2022-10-30T12:19:52;4.82;;;1.90;;
12445;SDS011;6287;50.984;7.022;2022-10-30T12:22:23;5.32;;;2.40;;
12445;SDS011;6287;50.984;7.022;2022-10-30T12:24:51;5.78;;;2.50;;
12445;SDS011;6287;50.984;7.022;2022-10-30T12:27:17;4.95;;;2.85;;
12445;SDS011;6287;50.984;7.022;2022-10-30T12:32:16;3.17;;;2.13;;
12445;SDS011;6287;50.984;7.022;2022-10-30T12:34:48;4.88;;;2.90;;
12445;SDS011;6287;50.984;7.022;2022-10-30T12:37:42;4.00;;;2.15;;
12445;SDS011;6287;50.984;7.022;2022-10-30T12:42:44;4.97;;;2.38;;
12445;SDS011;6287;50.984;7.022;2022-10-30T12:45:23;4.15;;;2.08;;
12445;SDS011;6287;50.984;7.022;2022-10-30T12:48:25;3.63;;;2.20;;
12445;SDS011;6287;50.984;7.022;2022-10-30T12:56:13;5.95;;;2.15;;
12445;SDS011;6287;50.984;7.022;2022-10-30T13:04:12;4.03;;;1.92;;
12445;SDS011;6287;50.984;7.022;2022-10-30T13:06:49;3.45;;;1.70;;
12445;SDS011;6287;50.984;7.022;2022-10-30T13:09:34;3.40;;;1.90;;
12445;SDS011;6287;50.984;7.022;2022-10-30T13:12:07;3.13;;;1.90;;
12445;SDS011;6287;50.984;7.022;2022-10-30T13:17:15;6.20;;;2.65;;
12445;SDS011;6287;50.984;7.022;2022-10-30T13:19:46;2.88;;;1.80;;
12445;SDS011;6287;50.984;7.022;2022-10-30T13:22:19;2.80;;;2.10;;
12445;SDS011;6287;50.984;7.022;2022-10-30T13:24:59;3.25;;;2.00;;
12445;SDS011;6287;50.984;7.022;2022-10-30T13:27:35;3.60;;;2.00;;
12445;SDS011;6287;50.984;7.022;2022-10-30T13:30:05;4.00;;;2.00;;
12445;SDS011;6287;50.984;7.022;2022-10-30T13:41:30;5.20;;;2.08;;
12445;SDS011;6287;50.984;7.022;2022-10-30T13:44:23;4.00;;;2.17;;
12445;SDS011;6287;50.984;7.022;2022-10-30T13:46:57;2.53;;;2.13;;
12445;SDS011;6287;50.984;7.022;2022-10-30T13:49:48;2.97;;;2.17;;
12445;SDS011;6287;50.984;7.022;2022-10-30T13:52:17;4.35;;;2.17;;
12445;SDS011;6287;50.984;7.022;2022-10-30T13:58:02;4.95;;;2.13;;
12445;SDS011;6287;50.984;7.022;2022-10-30T14:03:19;3.33;;;2.08;;
12445;SDS011;6287;50.984;7.022;2022-10-30T14:11:54;3.45;;;1.80;;
12445;SDS011;6287;50.984;7.022;2022-10-30T14:14:28;2.70;;;2.15;;
12445;SDS011;6287;50.984;7.022;2022-10-30T14:17:08;4.97;;;2.38;;
12445;SDS011;6287;50.984;7.022;2022-10-30T14:20:20;4.13;;;2.50;;
12445;SDS011;6287;50.984;7.022;2022-10-30T14:22:28;4.28;;;1.98;;
12445;SDS011;6287;50.984;7.022;2022-10-30T14:24:54;4.60;;;2.35;;
12445;SDS011;6287;50.984;7.022;2022-10-30T14:27:26;4.43;;;1.70;;
12445;SDS011;6287;50.984;7.022;2022-10-30T14:29:54;2.70;;;1.90;;
12445;SDS011;6287;50.984;7.022;2022-10-30T14:39:47;5.30;;;2.35;;
12445;SDS011;6287;50.984;7.022;2022-10-30T14:44:49;4.35;;;2.10;;
12445;SDS011;6287;50.984;7.022;2022-10-30T14:50:54;4.68;;;2.00;;
12445;SDS011;6287;50.984;7.022;2022-10-30T14:52:52;4.47;;;2.53;;
12445;SDS011;6287;50.984;7.022;2022-10-30T14:55:37;3.40;;;2.10;;
12445;SDS011;6287;50.984;7.022;2022-10-30T14:58:26;4.55;;;2.33;;
12445;SDS011;6287;50.984;7.022;2022-10-30T15:11:42;4.50;;;2.67;;
12445;SDS011;6287;50.984;7.022;2022-10-30T15:14:35;2.35;;;2.15;;
12445;SDS011;6287;50.984;7.022;2022-10-30T15:17:22;3.95;;;2.28;;
12445;SDS011;6287;50.984;7.022;2022-10-30T15:19:59;6.18;;;2.20;;
12445;SDS011;6287;50.984;7.022;2022-10-30T15:22:29;5.53;;;2.22;;
12445;SDS011;6287;50.984;7.022;2022-10-30T15:24:57;2.95;;;2.45;;
12445;SDS011;6287;50.984;7.022;2022-10-30T15:27:25;4.75;;;1.98;;
12445;SDS011;6287;50.984;7.022;2022-10-30T15:29:53;2.47;;;2.25;;
12445;SDS011;6287;50.984;7.022;2022-10-30T15:32:23;4.05;;;2.15;;
12445;SDS011;6287;50.984;7.022;2022-10-30T15:34:57;3.38;;;2.28;;
12445;SDS011;6287;50.984;7.022;2022-10-30T15:37:27;2.75;;;1.80;;
12445;SDS011;6287;50.984;7.022;2022-10-30T15:40:30;4.13;;;2.05;;
12445;SDS011;6287;50.984;7.022;2022-10-30T15:42:48;3.90;;;2.28;;
12445;SDS011;6287;50.984;7.022;2022-10-30T15:45:17;3.72;;;2.20;;
12445;SDS011;6287;50.984;7.022;2022-10-30T15:47:47;3.88;;;2.40;;
12445;SDS011;6287;50.984;7.022;2022-10-30T15:50:21;5.68;;;2.65;;
12445;SDS011;6287;50.984;7.022;2022-10-30T15:52:47;3.63;;;2.50;;
12445;SDS011;6287;50.984;7.022;2022-10-30T15:55:15;3.20;;;2.40;;
12445;SDS011;6287;50.984;7.022;2022-10-30T15:57:43;5.75;;;3.30;;
12445;SDS011;6287;50.984;7.022;2022-10-30T16:00:22;4.72;;;2.40;;
12445;SDS011;6287;50.984;7.022;2022-10-30T16:02:58;5.88;;;2.60;;
12445;SDS011;6287;50.984;7.022;2022-10-30T16:05:28;4.78;;;3.20;;
12445;SDS011;6287;50.984;7.022;2022-10-30T16:08:00;4.80;;;3.45;;
12445;SDS011;6287;50.984;7.022;2022-10-30T16:10:29;3.95;;;2.85;;
12445;SDS011;6287;50.984;7.022;2022-10-30T16:13:02;5.50;;;2.55;;
12445;SDS011;6287;50.984;7.022;2022-10-30T16:15:37;3.47;;;2.55;;
12445;SDS011;6287;50.984;7.022;2022-10-30T16:18:09;4.50;;;2.70;;
12445;SDS011;6287;50.984;7.022;2022-10-30T16:20:46;6.70;;;3.15;;
12445;SDS011;6287;50.984;7.022;2022-10-30T16:23:16;6.80;;;2.65;;
12445;SDS011;6287;50.984;7.022;2022-10-30T16:25:45;6.88;;;3.00;;
12445;SDS011;6287;50.984;7.022;2022-10-30T16:28:21;3.45;;;2.38;;
12445;SDS011;6287;50.984;7.022;2022-10-30T16:30:47;3.33;;;2.60;;
12445;SDS011;6287;50.984;7.022;2022-10-30T16:33:13;6.50;;;2.92;;
12445;SDS011;6287;50.984;7.022;2022-10-30T16:35:45;3.85;;;2.70;;
12445;SDS011;6287;50.984;7.022;2022-10-30T16:38:13;4.88;;;2.58;;
12445;SDS011;6287;50.984;7.022;2022-10-30T16:40:39;4.47;;;2.58;;
12445;SDS011;6287;50.984;7.022;2022-10-30T16:43:04;4.53;;;2.70;;
12445;SDS011;6287;50.984;7.022;2022-10-30T16:45:55;3.95;;;2.42;;
12445;SDS011;6287;50.984;7.022;2022-10-30T16:49:02;5.43;;;2.78;;
12445;SDS011;6287;50.984;7.022;2022-10-30T16:51:32;3.65;;;2.58;;
12445;SDS011;6287;50.984;7.022;2022-10-30T16:53:58;3.60;;;3.03;;
12445;SDS011;6287;50.984;7.022;2022-10-30T16:56:26;7.97;;;3.15;;
12445;SDS011;6287;50.984;7.022;2022-10-30T16:59:11;5.97;;;3.05;;
12445;SDS011;6287;50.984;7.022;2022-10-30T17:01:40;4.03;;;2.85;;
12445;SDS011;6287;50.984;7.022;2022-10-30T17:04:11;4.00;;;2.38;;
12445;SDS011;6287;50.984;7.022;2022-10-30T17:09:07;3.90;;;2.70;;
12445;SDS011;6287;50.984;7.022;2022-10-30T17:11:38;3.67;;;2.85;;
12445;SDS011;6287;50.984;7.022;2022-10-30T17:14:17;4.10;;;2.70;;
12445;SDS011;6287;50.984;7.022;2022-10-30T17:22:02;4.83;;;2.83;;
12445;SDS011;6287;50.984;7.022;2022-10-30T17:24:34;7.20;;;3.73;;
12445;SDS011;6287;50.984;7.022;2022-10-30T17:27:03;4.13;;;3.30;;
12445;SDS011;6287;50.984;7.022;2022-10-30T17:32:44;4.80;;;3.37;;
12445;SDS011;6287;50.984;7.022;2022-10-30T17:34:59;8.80;;;4.20;;
12445;SDS011;6287;50.984;7.022;2022-10-30T17:37:29;6.20;;;3.50;;
12445;SDS011;6287;50.984;7.022;2022-10-30T17:39:55;7.30;;;4.30;;
12445;SDS011;6287;50.984;7.022;2022-10-30T17:42:20;7.13;;;4.33;;
12445;SDS011;6287;50.984;7.022;2022-10-30T17:44:46;6.37;;;4.37;;
12445;SDS011;6287;50.984;7.022;2022-10-30T17:47:17;7.83;;;4.53;;
12445;SDS011;6287;50.984;7.022;2022-10-30T17:49:50;5.23;;;3.87;;
12445;SDS011;6287;50.984;7.022;2022-10-30T17:52:18;8.30;;;4.67;;
12445;SDS011;6287;50.984;7.022;2022-10-30T17:54:47;6.60;;;4.17;;
12445;SDS011;6287;50.984;7.022;2022-10-30T17:57:17;7.23;;;4.13;;
12445;SDS011;6287;50.984;7.022;2022-10-30T17:59:45;7.23;;;3.80;;